createdAt,value
2019-03-01T00:01:01.060Z,20.30
2019-03-01T00:03:34.661Z,20.30
2019-03-01T00:06:31.177Z,20.40
2019-03-01T00:09:48.038Z,20.40
2019-03-01T00:13:12.952Z,20.60
2019-03-01T00:16:15.848Z,20.70
2019-03-01T00:19:47.263Z,20.60
2019-03-01T00:23:01.458Z,20.60
2019-03-01T00:26:22.456Z,20.80
2019-03-01T00:29:51.458Z,20.90
2019-03-01T00:32:56.469Z,20.90
2019-03-01T00:36:38.547Z,20.90
2019-03-01T00:40:02.841Z,21.10
2019-03-01T00:43:26.243Z,20.90
2019-03-01T00:45:58.125Z,20.90
2019-03-01T00:48:29.923Z,20.80
2019-03-01T00:51:01.748Z,20.70
2019-03-01T00:53:33.743Z,20.60
2019-03-01T00:56:05.784Z,20.60
2019-03-01T00:58:37.531Z,20.80
2019-03-01T01:01:09.615Z,21.10
2019-03-01T01:03:41.359Z,21.10
2019-03-01T01:06:13.826Z,21.00
2019-03-01T01:08:45.963Z,20.90
2019-03-01T01:14:07.318Z,20.90
2019-03-01T01:16:39.107Z,20.70
2019-03-01T01:19:11.120Z,20.60
2019-03-01T01:21:42.918Z,20.60
2019-03-01T01:24:15.071Z,20.60
2019-03-01T01:26:46.823Z,20.70
2019-03-01T01:29:18.875Z,20.60
2019-03-01T01:31:50.633Z,20.50
2019-03-01T01:34:22.696Z,20.60
2019-03-01T01:36:54.456Z,20.60
2019-03-01T01:39:27.973Z,20.80
2019-03-01T01:41:59.744Z,20.60
2019-03-01T01:44:31.881Z,20.50
2019-03-01T01:47:03.657Z,20.50
2019-03-01T01:49:35.549Z,20.60
2019-03-01T01:52:07.298Z,20.60
2019-03-01T01:54:39.776Z,20.40
2019-03-01T01:57:11.553Z,20.40
2019-03-01T01:59:43.560Z,20.60
2019-03-01T02:02:15.337Z,20.50
2019-03-01T02:04:47.412Z,20.20
2019-03-01T02:07:19.149Z,20.30
2019-03-01T02:09:51.425Z,20.40
2019-03-01T02:12:23.200Z,20.30
2019-03-01T02:14:55.263Z,20.30
2019-03-01T02:17:26.999Z,20.40
2019-03-01T02:19:59.072Z,20.40
2019-03-01T02:22:30.812Z,20.50
2019-03-01T02:25:02.799Z,20.40
2019-03-01T02:27:34.614Z,20.60
2019-03-01T02:30:15.048Z,20.60
2019-03-01T02:32:53.260Z,20.50
2019-03-01T02:35:27.466Z,20.40
2019-03-01T02:37:59.201Z,20.50
2019-03-01T02:40:31.176Z,20.50
2019-03-01T02:43:02.920Z,20.60
2019-03-01T02:45:34.773Z,20.80
2019-03-01T02:48:06.511Z,20.80
2019-03-01T02:50:38.346Z,21.00
2019-03-01T02:53:11.182Z,21.00
2019-03-01T02:55:43.560Z,20.90
2019-03-01T02:58:15.339Z,20.90
2019-03-01T03:00:47.143Z,20.90
2019-03-01T03:03:18.959Z,20.90
2019-03-01T03:06:12.427Z,20.90
2019-03-01T03:08:44.193Z,21.20
2019-03-01T03:11:16.473Z,21.10
2019-03-01T03:13:48.281Z,21.00
2019-03-01T03:16:20.989Z,21.00
2019-03-01T03:18:52.730Z,21.10
2019-03-01T03:21:24.702Z,20.90
2019-03-01T03:23:56.506Z,21.00
2019-03-01T03:26:28.621Z,20.90
2019-03-01T03:29:00.400Z,21.00
2019-03-01T03:31:32.230Z,20.90
2019-03-01T03:34:04.003Z,20.90
2019-03-01T03:36:36.068Z,20.90
2019-03-01T03:39:12.445Z,20.80
2019-03-01T03:41:44.827Z,20.70
2019-03-01T03:44:16.577Z,20.70
2019-03-01T03:46:48.644Z,20.60
2019-03-01T03:49:20.377Z,20.70
2019-03-01T03:51:52.354Z,20.80
2019-03-01T03:54:24.150Z,20.70
2019-03-01T03:56:56.331Z,20.70
2019-03-01T03:59:28.163Z,20.70
2019-03-01T04:02:00.216Z,21.20
2019-03-01T04:04:32.223Z,21.00
2019-03-01T04:07:04.248Z,20.90
2019-03-01T04:09:36.030Z,20.80
2019-03-01T04:12:09.750Z,20.70
2019-03-01T04:14:41.509Z,21.00
2019-03-01T04:17:13.433Z,20.90
2019-03-01T04:19:45.165Z,20.90
2019-03-01T04:22:17.033Z,20.90
2019-03-01T04:24:48.806Z,20.90
2019-03-01T04:27:20.834Z,20.70
2019-03-01T04:29:52.736Z,20.90
2019-03-01T04:32:24.583Z,20.90
2019-03-01T04:34:56.393Z,21.00
2019-03-01T04:37:28.425Z,20.80
2019-03-01T04:40:01.278Z,20.70
2019-03-01T04:42:34.815Z,20.80
2019-03-01T04:45:07.267Z,20.80
2019-03-01T04:47:39.119Z,21.10
2019-03-01T04:50:11.494Z,21.00
2019-03-01T04:52:43.552Z,21.00
2019-03-01T04:55:24.405Z,20.90
2019-03-01T04:57:56.726Z,20.90
2019-03-01T05:00:28.477Z,21.00
2019-03-01T05:03:00.450Z,20.90
2019-03-01T05:05:32.196Z,21.00
2019-03-01T05:08:04.282Z,21.00
2019-03-01T05:10:36.048Z,21.30
2019-03-01T05:13:08.306Z,21.50
2019-03-01T05:15:40.064Z,21.60
2019-03-01T05:18:11.939Z,21.90
2019-03-01T05:20:43.665Z,21.80
2019-03-01T05:23:15.761Z,21.70
2019-03-01T05:25:47.770Z,21.50
2019-03-01T05:28:20.085Z,21.50
2019-03-01T05:30:51.863Z,21.10
2019-03-01T05:33:24.017Z,20.90
2019-03-01T05:35:55.941Z,20.70
2019-03-01T05:38:28.043Z,20.90
2019-03-01T05:40:59.816Z,20.90
2019-03-01T05:43:31.712Z,20.60
2019-03-01T05:46:03.478Z,20.50
2019-03-01T05:48:35.359Z,20.50
2019-03-01T05:51:07.408Z,21.20
2019-03-01T05:53:39.429Z,21.40
2019-03-01T05:56:11.215Z,21.20
2019-03-01T05:59:13.238Z,21.10
2019-03-01T06:02:48.473Z,21.40
2019-03-01T06:05:35.390Z,21.40
2019-03-01T06:09:10.977Z,21.60
2019-03-01T06:12:02.028Z,21.40
2019-03-01T06:15:21.510Z,22.00
2019-03-01T06:18:45.860Z,22.10
2019-03-01T06:22:15.154Z,21.60
2019-03-01T06:26:02.295Z,21.30
2019-03-01T06:29:29.547Z,21.20
2019-03-01T06:33:13.838Z,21.40
2019-03-01T06:36:34.271Z,21.40
2019-03-01T06:40:01.267Z,21.20
2019-03-01T06:43:59.895Z,21.40
2019-03-01T06:47:03.049Z,21.40
2019-03-01T06:50:13.128Z,21.10
2019-03-01T06:52:45.571Z,21.40
2019-03-01T06:55:50.609Z,21.40
2019-03-01T06:58:44.924Z,21.40
2019-03-01T07:01:18.913Z,21.30
2019-03-01T07:03:59.503Z,21.00
2019-03-01T07:06:31.295Z,21.30
2019-03-01T07:09:03.299Z,21.10
2019-03-01T07:11:35.523Z,21.20
2019-03-01T07:14:07.366Z,21.70
2019-03-01T07:16:39.175Z,21.70
2019-03-01T07:19:10.981Z,21.50
2019-03-01T07:21:43.098Z,21.70
2019-03-01T07:24:15.267Z,21.70
2019-03-01T07:26:47.039Z,21.70
2019-03-01T07:29:19.249Z,21.50
2019-03-01T07:31:51.453Z,21.20
2019-03-01T07:34:23.396Z,21.40
2019-03-01T07:36:55.227Z,21.20
2019-03-01T07:39:27.303Z,21.30
2019-03-01T07:41:59.181Z,21.00
2019-03-01T07:44:30.967Z,21.10
2019-03-01T07:47:03.208Z,21.10
2019-03-01T07:49:36.230Z,21.20
2019-03-01T07:52:08.033Z,21.10
2019-03-01T07:54:39.860Z,21.20
2019-03-01T07:57:14.738Z,21.00
2019-03-01T07:59:46.371Z,21.00
2019-03-01T08:02:18.551Z,21.40
2019-03-01T08:04:50.412Z,21.30
2019-03-01T08:07:23.584Z,21.20
2019-03-01T08:09:56.388Z,21.20
2019-03-01T08:12:28.264Z,21.70
2019-03-01T08:15:00.413Z,21.60
2019-03-01T08:17:32.753Z,21.80
2019-03-01T08:20:05.250Z,21.20
2019-03-01T08:22:47.465Z,21.40
2019-03-01T08:25:12.246Z,21.20
2019-03-01T08:27:46.245Z,21.20
2019-03-01T08:30:18.129Z,21.60
2019-03-01T08:32:50.237Z,21.80
2019-03-01T08:35:25.282Z,21.40
2019-03-01T08:37:55.701Z,20.70
2019-03-01T08:40:27.756Z,21.10
2019-03-01T08:42:59.553Z,21.30
2019-03-01T08:45:32.979Z,21.30
2019-03-01T08:48:05.385Z,21.40
2019-03-01T08:50:37.533Z,21.30
2019-03-01T08:53:11.490Z,21.00
2019-03-01T08:55:42.946Z,20.90
2019-03-01T08:58:14.713Z,20.80
2019-03-01T09:00:47.042Z,20.70
2019-03-01T09:03:38.828Z,20.90
2019-03-01T09:06:10.915Z,20.80
2019-03-01T09:08:45.953Z,20.80
2019-03-01T09:11:16.577Z,20.60
2019-03-01T09:13:48.890Z,20.90
2019-03-01T09:16:21.123Z,20.60
2019-03-01T09:18:52.927Z,20.30
2019-03-01T09:21:25.068Z,20.30
2019-03-01T09:23:56.944Z,20.70
2019-03-01T09:26:29.081Z,20.90
2019-03-01T09:29:00.856Z,21.00
2019-03-01T09:31:32.903Z,20.60
2019-03-01T09:34:06.196Z,20.00
2019-03-01T09:36:51.456Z,20.00
2019-03-01T09:39:24.309Z,20.40
2019-03-01T09:42:02.880Z,20.20
2019-03-01T09:44:29.793Z,19.50
2019-03-01T09:47:02.601Z,19.60
2019-03-01T09:49:36.375Z,19.50
2019-03-01T09:52:08.593Z,19.10
2019-03-01T09:54:40.413Z,19.10
2019-03-01T09:57:15.629Z,19.10
2019-03-01T09:59:46.144Z,19.60
2019-03-01T10:02:18.384Z,19.80
2019-03-01T10:04:51.242Z,19.70
2019-03-01T10:07:23.347Z,19.70
2019-03-01T10:09:55.200Z,20.00
2019-03-01T10:12:27.374Z,19.90
2019-03-01T10:14:59.217Z,19.90
2019-03-01T10:17:31.176Z,19.80
2019-03-01T10:20:03.140Z,19.10
2019-03-01T10:22:35.114Z,19.30
2019-03-01T10:25:08.117Z,19.40
2019-03-01T10:27:40.385Z,19.00
2019-03-01T10:30:18.435Z,19.20
2019-03-01T10:32:50.639Z,18.70
2019-03-01T10:35:22.781Z,18.60
2019-03-01T10:37:54.796Z,18.80
2019-03-01T10:40:26.644Z,18.50
2019-03-01T10:42:58.822Z,18.20
2019-03-01T10:45:30.755Z,18.00
2019-03-01T10:48:02.597Z,18.30
2019-03-01T10:50:34.695Z,18.60
2019-03-01T10:53:06.793Z,18.70
2019-03-01T10:55:38.686Z,19.00
2019-03-01T10:58:10.592Z,18.70
2019-03-01T11:00:42.482Z,18.90
2019-03-01T11:03:14.829Z,19.00
2019-03-01T11:05:47.051Z,18.90
2019-03-01T11:08:18.891Z,19.10
2019-03-01T11:10:50.665Z,18.50
2019-03-01T11:13:22.787Z,18.40
2019-03-01T11:15:54.585Z,18.50
2019-03-01T11:18:26.612Z,18.30
2019-03-01T11:20:58.763Z,18.50
2019-03-01T11:23:32.636Z,18.20
2019-03-01T11:26:04.182Z,18.40
2019-03-01T11:28:36.311Z,18.50
2019-03-01T11:31:08.141Z,19.00
2019-03-01T11:33:40.227Z,18.90
2019-03-01T11:36:12.816Z,18.50
2019-03-01T11:38:44.830Z,17.90
2019-03-01T11:41:16.693Z,17.90
2019-03-01T11:43:48.808Z,17.40
2019-03-01T11:46:20.884Z,17.50
2019-03-01T11:48:52.805Z,17.50
2019-03-01T11:51:24.788Z,17.50
2019-03-01T11:53:56.867Z,16.90
2019-03-01T11:56:28.649Z,17.50
2019-03-01T11:59:00.792Z,17.60
2019-03-01T12:01:33.651Z,17.70
2019-03-01T12:04:05.795Z,16.80
2019-03-01T12:06:37.959Z,16.70
2019-03-01T12:09:10.380Z,16.50
2019-03-01T12:11:42.234Z,16.70
2019-03-01T12:14:14.080Z,16.80
2019-03-01T12:16:45.939Z,16.90
2019-03-01T12:19:18.070Z,17.00
2019-03-01T12:21:50.260Z,17.40
2019-03-01T12:24:22.135Z,17.10
2019-03-01T12:26:53.920Z,16.90
2019-03-01T12:29:25.890Z,16.80
2019-03-01T12:31:57.703Z,17.10
2019-03-01T12:34:29.859Z,17.60
2019-03-01T12:37:01.900Z,17.10
2019-03-01T12:39:33.831Z,16.80
2019-03-01T12:42:05.612Z,16.80
2019-03-01T12:44:37.552Z,16.40
2019-03-01T12:47:09.343Z,16.50
2019-03-01T12:49:41.631Z,16.60
2019-03-01T12:52:13.728Z,16.40
2019-03-01T12:54:45.675Z,17.00
2019-03-01T12:57:17.642Z,17.30
2019-03-01T12:59:49.537Z,17.00
2019-03-01T13:02:21.329Z,16.80
2019-03-01T13:04:54.483Z,16.80
2019-03-01T13:07:26.883Z,17.00
2019-03-01T13:09:58.950Z,16.80
2019-03-01T13:12:32.299Z,16.90
2019-03-01T13:15:04.336Z,17.00
2019-03-01T13:17:37.228Z,17.20
2019-03-01T13:20:14.070Z,16.80
2019-03-01T13:22:46.467Z,17.10
2019-03-01T13:25:19.572Z,16.50
2019-03-01T13:27:52.372Z,16.70
2019-03-01T13:30:25.241Z,16.90
2019-03-01T13:32:58.940Z,16.80
2019-03-01T13:35:30.921Z,16.60
2019-03-01T13:38:03.910Z,17.40
2019-03-01T13:40:36.281Z,17.00
2019-03-01T13:43:08.889Z,16.90
2019-03-01T13:45:41.052Z,16.70
2019-03-01T13:48:15.807Z,16.50
2019-03-01T13:50:46.689Z,16.60
2019-03-01T13:53:19.889Z,16.60
2019-03-01T13:55:52.382Z,15.90
2019-03-01T13:58:27.705Z,16.10
2019-03-01T14:00:57.960Z,15.80
2019-03-01T14:03:29.746Z,16.20
2019-03-01T14:06:02.255Z,16.50
2019-03-01T14:08:34.658Z,16.10
2019-03-01T14:11:06.613Z,16.60
2019-03-01T14:13:38.556Z,16.70
2019-03-01T14:16:10.443Z,16.40
2019-03-01T14:18:42.258Z,17.00
2019-03-01T14:21:14.338Z,16.60
2019-03-01T14:23:46.354Z,16.40
2019-03-01T14:26:19.385Z,16.80
2019-03-01T14:28:51.638Z,17.00
2019-03-01T14:31:23.961Z,17.30
2019-03-01T14:33:55.790Z,16.80
2019-03-01T14:36:27.969Z,17.00
2019-03-01T14:38:59.933Z,17.20
2019-03-01T14:41:35.083Z,17.00
2019-03-01T14:44:05.716Z,17.20
2019-03-01T14:46:37.762Z,17.20
2019-03-01T14:49:09.660Z,16.90
2019-03-01T14:51:46.519Z,17.00
2019-03-01T14:54:15.698Z,17.30
2019-03-01T14:56:59.869Z,17.40
2019-03-01T15:00:16.494Z,17.70
2019-03-01T15:03:30.687Z,18.00
2019-03-01T15:06:03.322Z,17.90
2019-03-01T15:08:35.494Z,17.70
2019-03-01T15:11:11.814Z,17.50
2019-03-01T15:13:44.153Z,17.80
2019-03-01T15:16:16.053Z,17.60
2019-03-01T15:18:48.157Z,17.20
2019-03-01T15:21:21.371Z,17.00
2019-03-01T15:23:56.204Z,17.00
2019-03-01T15:26:27.942Z,17.10
2019-03-01T15:29:00.926Z,16.40
2019-03-01T15:31:32.952Z,16.30
2019-03-01T15:34:05.146Z,16.30
2019-03-01T15:36:36.983Z,16.30
2019-03-01T15:39:09.498Z,16.50
2019-03-01T15:41:43.047Z,16.70
2019-03-01T15:44:15.807Z,16.50
2019-03-01T15:46:49.958Z,16.30
2019-03-01T15:49:23.690Z,16.10
2019-03-01T15:51:55.760Z,16.30
2019-03-01T15:54:27.937Z,15.60
2019-03-01T15:57:00.167Z,16.10
2019-03-01T15:59:32.359Z,16.10
2019-03-01T16:02:05.362Z,16.30
2019-03-01T16:04:37.304Z,15.90
2019-03-01T16:07:09.193Z,15.40
2019-03-01T16:09:41.296Z,15.20
2019-03-01T16:12:13.421Z,14.70
2019-03-01T16:14:45.584Z,14.80
2019-03-01T16:17:17.429Z,14.60
2019-03-01T16:19:50.155Z,14.60
2019-03-01T16:22:24.246Z,14.70
2019-03-01T16:24:56.393Z,14.60
2019-03-01T16:27:28.483Z,14.60
2019-03-01T16:30:00.868Z,14.40
2019-03-01T16:32:33.401Z,14.60
2019-03-01T16:35:06.102Z,14.50
2019-03-01T16:37:38.688Z,14.70
2019-03-01T16:40:13.067Z,14.60
2019-03-01T16:42:45.113Z,14.60
2019-03-01T16:45:20.957Z,14.60
2019-03-01T16:47:52.132Z,14.90
2019-03-01T16:50:24.609Z,14.70
2019-03-01T16:52:56.758Z,14.80
2019-03-01T16:55:28.895Z,14.70
2019-03-01T16:58:06.773Z,14.70
2019-03-01T17:00:37.990Z,14.80
2019-03-01T17:03:10.091Z,14.80
2019-03-01T17:05:42.318Z,14.90
2019-03-01T17:08:14.286Z,14.70
2019-03-01T17:10:46.469Z,14.60
2019-03-01T17:13:18.851Z,14.60
2019-03-01T17:15:51.195Z,14.50
2019-03-01T17:18:23.639Z,14.60
2019-03-01T17:20:55.846Z,14.90
2019-03-01T17:23:27.695Z,15.00
2019-03-01T17:25:59.718Z,14.80
2019-03-01T17:28:31.789Z,14.90
2019-03-01T17:31:03.795Z,14.90
2019-03-01T17:33:35.680Z,14.70
2019-03-01T17:36:07.813Z,14.90
2019-03-01T17:38:43.508Z,14.70
2019-03-01T17:41:13.844Z,14.70
2019-03-01T17:43:45.930Z,14.60
2019-03-01T17:46:19.495Z,15.10
2019-03-01T17:48:54.177Z,15.30
2019-03-01T17:51:25.763Z,15.40
2019-03-01T17:53:57.833Z,15.60
2019-03-01T17:56:30.315Z,15.80
2019-03-01T17:59:02.717Z,15.60
2019-03-01T18:01:38.972Z,15.70
2019-03-01T18:04:09.562Z,15.90
2019-03-01T18:06:42.261Z,15.50
2019-03-01T18:09:16.230Z,15.40
2019-03-01T18:11:50.053Z,15.40
2019-03-01T18:14:22.986Z,15.30
2019-03-01T18:16:57.074Z,15.90
2019-03-01T18:19:29.755Z,15.70
2019-03-01T18:22:02.154Z,15.60
2019-03-01T18:24:34.805Z,15.40
2019-03-01T18:27:08.207Z,15.50
2019-03-01T18:29:42.396Z,15.50
2019-03-01T18:32:17.198Z,15.40
2019-03-01T18:34:50.745Z,15.30
2019-03-01T18:37:24.739Z,14.70
2019-03-01T18:39:57.716Z,14.90
2019-03-01T18:42:34.306Z,14.70
2019-03-01T18:45:07.924Z,14.70
2019-03-01T18:47:40.868Z,14.90
2019-03-01T18:50:18.753Z,14.80
2019-03-01T18:52:53.215Z,15.00
2019-03-01T18:55:24.960Z,14.90
2019-03-01T18:57:57.283Z,15.00
2019-03-01T19:00:35.635Z,15.10
2019-03-01T19:03:08.704Z,15.20
2019-03-01T19:05:41.499Z,15.20
2019-03-01T19:08:14.162Z,15.20
2019-03-01T19:10:53.999Z,15.20
2019-03-01T19:13:23.874Z,15.30
2019-03-01T19:15:54.846Z,15.20
2019-03-01T19:18:27.314Z,15.30
2019-03-01T19:20:59.828Z,15.40
2019-03-01T19:23:33.371Z,15.40
2019-03-01T19:26:06.778Z,15.50
2019-03-01T19:28:39.499Z,15.60
2019-03-01T19:31:12.889Z,15.70
2019-03-01T19:33:46.480Z,15.70
2019-03-01T19:36:18.967Z,15.90
2019-03-01T19:38:51.822Z,15.60
2019-03-01T19:41:24.627Z,15.50
2019-03-01T19:43:58.471Z,15.30
2019-03-01T19:46:32.317Z,15.00
2019-03-01T19:49:05.951Z,14.60
2019-03-01T19:51:39.132Z,14.50
2019-03-01T19:54:14.170Z,14.40
2019-03-01T19:56:48.348Z,14.10
2019-03-01T19:59:22.228Z,13.80
2019-03-01T20:01:56.303Z,14.40
2019-03-01T20:04:30.662Z,13.90
2019-03-01T20:07:04.392Z,13.90
2019-03-01T20:09:39.759Z,14.00
2019-03-01T20:12:14.197Z,13.90
2019-03-01T20:14:47.725Z,14.00
2019-03-01T20:17:21.862Z,14.10
2019-03-01T20:19:56.986Z,13.90
2019-03-01T20:22:32.153Z,14.00
2019-03-01T20:25:06.507Z,13.80
2019-03-01T20:27:40.277Z,13.60
2019-03-01T20:30:28.820Z,13.90
2019-03-01T20:32:57.378Z,13.70
2019-03-01T20:35:31.115Z,13.90
2019-03-01T20:38:04.841Z,13.60
2019-03-01T20:40:39.314Z,14.10
2019-03-01T20:43:12.760Z,13.80
2019-03-01T20:45:48.001Z,13.70
2019-03-01T20:48:25.667Z,13.70
2019-03-01T20:50:57.956Z,13.60
2019-03-01T20:53:31.679Z,13.80
2019-03-01T20:56:05.750Z,13.60
2019-03-01T20:58:39.554Z,13.60
2019-03-01T21:01:14.785Z,13.90
2019-03-01T21:03:48.731Z,13.80
2019-03-01T21:06:23.752Z,13.70
2019-03-01T21:09:00.692Z,13.60
2019-03-01T21:11:33.006Z,13.40
2019-03-01T21:14:06.542Z,13.60
2019-03-01T21:16:41.439Z,13.90
2019-03-01T21:19:16.086Z,13.50
2019-03-01T21:21:49.895Z,13.30
2019-03-01T21:24:26.569Z,13.40
2019-03-01T21:26:59.621Z,13.20
2019-03-01T21:29:32.515Z,13.30
2019-03-01T21:32:05.380Z,13.50
2019-03-01T21:34:38.437Z,13.40
2019-03-01T21:37:11.921Z,13.20
2019-03-01T21:39:45.378Z,13.10
2019-03-01T21:42:20.250Z,13.00
2019-03-01T21:44:53.456Z,13.20
2019-03-01T21:47:27.229Z,13.00
2019-03-01T21:49:59.966Z,12.90
2019-03-01T21:52:33.648Z,13.00
2019-03-01T21:55:06.237Z,13.00
2019-03-01T21:57:39.913Z,12.90
2019-03-01T22:00:16.254Z,13.10
2019-03-01T22:02:52.790Z,12.80
2019-03-01T22:05:22.411Z,12.80
2019-03-01T22:07:55.301Z,12.80
2019-03-01T22:10:27.181Z,12.90
2019-03-01T22:13:00.532Z,12.90
2019-03-01T22:15:32.978Z,12.90
2019-03-01T22:18:05.479Z,12.90
2019-03-01T22:20:37.292Z,13.00
2019-03-01T22:23:10.220Z,12.80
2019-03-01T22:25:43.255Z,13.10
2019-03-01T22:28:15.354Z,13.20
2019-03-01T22:30:47.204Z,13.10
2019-03-01T22:33:20.759Z,13.00
2019-03-01T22:35:53.120Z,13.10
2019-03-01T22:38:25.007Z,13.20
2019-03-01T22:40:56.875Z,13.10
2019-03-01T22:43:28.967Z,13.30
2019-03-01T22:46:00.926Z,13.20
2019-03-01T22:48:33.930Z,13.00
2019-03-01T22:51:06.165Z,13.30
2019-03-01T22:53:38.615Z,13.20
2019-03-01T22:56:13.010Z,13.20
2019-03-01T22:58:45.385Z,13.00
2019-03-01T23:01:33.676Z,12.70
2019-03-01T23:04:07.881Z,12.80
2019-03-01T23:06:39.940Z,12.80
2019-03-01T23:09:17.689Z,13.00
2019-03-01T23:11:49.593Z,12.90
2019-03-01T23:14:21.958Z,12.60
2019-03-01T23:16:54.491Z,12.80
2019-03-01T23:19:28.751Z,12.60
2019-03-01T23:22:00.899Z,12.60
2019-03-01T23:24:35.117Z,12.80
2019-03-01T23:27:06.562Z,12.70
2019-03-01T23:29:39.939Z,12.60
2019-03-01T23:32:15.399Z,12.40
2019-03-01T23:34:45.588Z,12.50
2019-03-01T23:37:17.903Z,12.40
2019-03-01T23:39:50.059Z,12.20
2019-03-01T23:42:22.055Z,12.20
2019-03-01T23:44:54.426Z,12.00
2019-03-01T23:47:26.194Z,12.10
2019-03-01T23:49:59.382Z,12.00
2019-03-01T23:52:31.573Z,12.10
2019-03-01T23:55:03.580Z,12.30
2019-03-01T23:57:38.101Z,12.20
